Tupper Lake, NY

8:06 AM EDT on August 26, 2016 (GMT -0400)
The Wild Center | | Change Station

Elev 1640 ft 44.22 °N, 74.44 °W | Updated 15 seconds ago

Mostly Cloudy
Mostly Cloudy
68.5 °F
Feels Like 68.5 °F
N
0.0
Wind Variable Wind from NW
Gusts 4.0 mph

Today
High -- | Low -- °F
--% Chance of Precip.
Yesterday
High -- | Low -- °F
Precip. -- in
Pressure 29.98 in
Visibility 10.0 miles
Clouds Scattered Clouds 900 ft
Mostly Cloudy 1600 ft
Mostly Cloudy 4500 ft
Dew Point 68 °F
Humidity 97%
Rainfall 0.66 in
Snow Depth Not available.
6:14 AM 7:43 PM
Waning Crescent, 35% visible
METAR KSLK 261151Z AUTO 27005KT 10SM SCT009 BKN016 BKN045 20/18 A3000 RMK AO2 SLP151 60017 70017 T02000183 10206 20189 53020
Pressure 29.98 in
Visibility 10.0 miles
Clouds Scattered Clouds 900 ft
Mostly Cloudy 1600 ft
Mostly Cloudy 4500 ft
Dew Point 68 °F
Humidity 97%
Rainfall 0.66 in
Snow Depth Not available.
6:14 AM 7:43 PM
Waning Crescent, 35% visible
METAR KSLK 261151Z AUTO 27005KT 10SM SCT009 BKN016 BKN045 20/18 A3000 RMK AO2 SLP151 60017 70017 T02000183 10206 20189 53020

10-Day Weather Forecast

Almanac

Astronomy

Aug. 26, 2016 Rise Set
Actual Time
Civil Twilight
Nautical Twilight
Astronomical Twilight
Moon
Length of Visible Light
Length of Day
Tomorrow will be .
, % of the Moon is Illuminated

Today's Extremes

State Highs State Lows

Community

WunderPhotos

Upload Photos

1,935,077 photos uploaded!

WunderBlog® & News

Nearby

Air Quality

  Air Quality AQ Index Pollutant
Not available.

Snow Depth

Station Depth Elevation

Earthquake Activity

City Distance Mag. Time & Date
Minimum magnitude displayed is 2.5.

Coastal Water Temperatures

Place Temperature

Stations

Nearby Weather Stations

Station Location Temp. Windchill Dew Point Humidity Wind Precip. Elev Updated Type
                   

Watches & Warnings

There are currently no watches in effect.